sensor_id;sensor_type;location;lat;lon;timestamp;pressure;altitude;pressure_sealevel;temperature;humidity
11223;BME280;5668;52.012;8.724;2023-04-01T00:00:09;98048.19;;;11.79;100.00
11223;BME280;5668;52.012;8.724;2023-04-01T00:02:37;98043.16;;;11.78;100.00
11223;BME280;5668;52.012;8.724;2023-04-01T00:05:05;98033.38;;;11.80;100.00
11223;BME280;5668;52.012;8.724;2023-04-01T00:07:32;98038.22;;;11.83;100.00
11223;BME280;5668;52.012;8.724;2023-04-01T00:09:59;98040.84;;;11.83;100.00
11223;BME280;5668;52.012;8.724;2023-04-01T00:12:27;98033.56;;;11.78;100.00
11223;BME280;5668;52.012;8.724;2023-04-01T00:14:54;98035.50;;;11.76;100.00
11223;BME280;5668;52.012;8.724;2023-04-01T00:17:23;98040.38;;;11.79;100.00
11223;BME280;5668;52.012;8.724;2023-04-01T00:19:50;98041.34;;;11.78;100.00
11223;BME280;5668;52.012;8.724;2023-04-01T00:22:17;98039.09;;;11.75;100.00
11223;BME280;5668;52.012;8.724;2023-04-01T00:24:44;98047.53;;;11.77;100.00
11223;BME280;5668;52.012;8.724;2023-04-01T00:27:13;98035.50;;;11.76;100.00
11223;BME280;5668;52.012;8.724;2023-04-01T00:29:42;98036.31;;;11.77;100.00
11223;BME280;5668;52.012;8.724;2023-04-01T00:32:09;98036.47;;;11.75;100.00
11223;BME280;5668;52.012;8.724;2023-04-01T00:34:38;98034.22;;;11.72;100.00
11223;BME280;5668;52.012;8.724;2023-04-01T00:37:06;98034.00;;;11.74;100.00
11223;BME280;5668;52.012;8.724;2023-04-01T00:39:33;98034.84;;;11.74;100.00
11223;BME280;5668;52.012;8.724;2023-04-01T00:42:03;98028.66;;;11.75;100.00
11223;BME280;5668;52.012;8.724;2023-04-01T00:44:32;98037.47;;;11.74;100.00
11223;BME280;5668;52.012;8.724;2023-04-01T00:47:00;98025.25;;;11.75;100.00
11223;BME280;5668;52.012;8.724;2023-04-01T00:49:30;98029.47;;;11.76;100.00
11223;BME280;5668;52.012;8.724;2023-04-01T00:52:02;98032.25;;;11.74;100.00
11223;BME280;5668;52.012;8.724;2023-04-01T00:54:31;98036.63;;;11.74;100.00
11223;BME280;5668;52.012;8.724;2023-04-01T00:57:01;98036.00;;;11.72;100.00
11223;BME280;5668;52.012;8.724;2023-04-01T00:59:33;98026.91;;;11.68;100.00
11223;BME280;5668;52.012;8.724;2023-04-01T01:02:02;98038.13;;;11.68;100.00
11223;BME280;5668;52.012;8.724;2023-04-01T01:04:32;98032.91;;;11.68;100.00
11223;BME280;5668;52.012;8.724;2023-04-01T01:07:10;98027.53;;;11.70;100.00
11223;BME280;5668;52.012;8.724;2023-04-01T01:09:45;98020.53;;;11.70;100.00
11223;BME280;5668;52.012;8.724;2023-04-01T01:12:19;98018.91;;;11.69;100.00
11223;BME280;5668;52.012;8.724;2023-04-01T01:14:55;98019.56;;;11.71;100.00
11223;BME280;5668;52.012;8.724;2023-04-01T01:17:38;98020.88;;;11.67;100.00
11223;BME280;5668;52.012;8.724;2023-04-01T01:20:40;98020.06;;;11.67;100.00
11223;BME280;5668;52.012;8.724;2023-04-01T01:23:42;98016.34;;;11.61;100.00
11223;BME280;5668;52.012;8.724;2023-04-01T01:26:44;98017.16;;;11.61;100.00
11223;BME280;5668;52.012;8.724;2023-04-01T01:29:27;98017.16;;;11.61;100.00
11223;BME280;5668;52.012;8.724;2023-04-01T01:32:03;98009.19;;;11.63;100.00
11223;BME280;5668;52.012;8.724;2023-04-01T01:34:39;98014.56;;;11.61;100.00
11223;BME280;5668;52.012;8.724;2023-04-01T01:37:12;98017.00;;;11.63;100.00
11223;BME280;5668;52.012;8.724;2023-04-01T01:39:42;98017.34;;;11.60;100.00
11223;BME280;5668;52.012;8.724;2023-04-01T01:42:13;98015.09;;;11.57;100.00
11223;BME280;5668;52.012;8.724;2023-04-01T01:44:45;98011.47;;;11.58;100.00
11223;BME280;5668;52.012;8.724;2023-04-01T01:47:14;98019.94;;;11.60;100.00
11223;BME280;5668;52.012;8.724;2023-04-01T01:49:44;98009.19;;;11.63;100.00
11223;BME280;5668;52.012;8.724;2023-04-01T01:52:13;98006.78;;;11.61;100.00
11223;BME280;5668;52.012;8.724;2023-04-01T01:54:48;98022.38;;;11.61;100.00
11223;BME280;5668;52.012;8.724;2023-04-01T01:57:17;98010.50;;;11.59;100.00
11223;BME280;5668;52.012;8.724;2023-04-01T01:59:47;98011.97;;;11.61;100.00
11223;BME280;5668;52.012;8.724;2023-04-01T02:02:15;98003.34;;;11.61;100.00
11223;BME280;5668;52.012;8.724;2023-04-01T02:04:45;98016.53;;;11.59;100.00
11223;BME280;5668;52.012;8.724;2023-04-01T02:07:17;98013.09;;;11.59;100.00
11223;BME280;5668;52.012;8.724;2023-04-01T02:09:50;98016.69;;;11.58;100.00
11223;BME280;5668;52.012;8.724;2023-04-01T02:12:22;98019.28;;;11.58;100.00
11223;BME280;5668;52.012;8.724;2023-04-01T02:14:53;98016.41;;;11.53;100.00
11223;BME280;5668;52.012;8.724;2023-04-01T02:17:23;98015.94;;;11.49;100.00
11223;BME280;5668;52.012;8.724;2023-04-01T02:19:53;98014.94;;;11.50;100.00
11223;BME280;5668;52.012;8.724;2023-04-01T02:22:25;98018.03;;;11.54;100.00
11223;BME280;5668;52.012;8.724;2023-04-01T02:24:57;98015.41;;;11.54;100.00
11223;BME280;5668;52.012;8.724;2023-04-01T02:27:25;98013.47;;;11.56;100.00
11223;BME280;5668;52.012;8.724;2023-04-01T02:29:53;98016.06;;;11.56;100.00
11223;BME280;5668;52.012;8.724;2023-04-01T02:32:20;98015.41;;;11.54;100.00
11223;BME280;5668;52.012;8.724;2023-04-01T02:34:48;98012.00;;;11.53;100.00
11223;BME280;5668;52.012;8.724;2023-04-01T02:37:16;98014.16;;;11.50;100.00
11223;BME280;5668;52.012;8.724;2023-04-01T02:39:45;98011.56;;;11.50;100.00
11223;BME280;5668;52.012;8.724;2023-04-01T02:42:14;98010.53;;;11.51;100.00
11223;BME280;5668;52.012;8.724;2023-04-01T02:44:41;98010.53;;;11.51;100.00
11223;BME280;5668;52.012;8.724;2023-04-01T02:47:08;98022.56;;;11.52;100.00
11223;BME280;5668;52.012;8.724;2023-04-01T02:49:35;98015.75;;;11.51;100.00
11223;BME280;5668;52.012;8.724;2023-04-01T02:52:03;98015.75;;;11.51;100.00
11223;BME280;5668;52.012;8.724;2023-04-01T02:54:31;98012.53;;;11.49;100.00
11223;BME280;5668;52.012;8.724;2023-04-01T02:56:59;98015.94;;;11.49;100.00
11223;BME280;5668;52.012;8.724;2023-04-01T02:59:26;98016.09;;;11.48;100.00
11223;BME280;5668;52.012;8.724;2023-04-01T03:01:53;98020.66;;;11.46;100.00
11223;BME280;5668;52.012;8.724;2023-04-01T03:04:21;98018.72;;;11.48;100.00
11223;BME280;5668;52.012;8.724;2023-04-01T03:06:48;98017.09;;;11.47;100.00
11223;BME280;5668;52.012;8.724;2023-04-01T03:09:15;98018.06;;;11.46;100.00
11223;BME280;5668;52.012;8.724;2023-04-01T03:11:42;98014.63;;;11.45;100.00
11223;BME280;5668;52.012;8.724;2023-04-01T03:14:11;98017.91;;;11.47;100.00
11223;BME280;5668;52.012;8.724;2023-04-01T03:16:39;98021.31;;;11.48;100.00
11223;BME280;5668;52.012;8.724;2023-04-01T03:19:06;98022.28;;;11.47;100.00
11223;BME280;5668;52.012;8.724;2023-04-01T03:21:33;98025.84;;;11.46;100.00
11223;BME280;5668;52.012;8.724;2023-04-01T03:24:00;98027.81;;;11.44;100.00
11223;BME280;5668;52.012;8.724;2023-04-01T03:26:27;98026.84;;;11.45;100.00
11223;BME280;5668;52.012;8.724;2023-04-01T03:28:55;98024.41;;;11.43;100.00
11223;BME280;5668;52.012;8.724;2023-04-01T03:31:24;98029.59;;;11.43;100.00
11223;BME280;5668;52.012;8.724;2023-04-01T03:33:51;98025.22;;;11.44;100.00
11223;BME280;5668;52.012;8.724;2023-04-01T03:36:18;98033.00;;;11.44;100.00
11223;BME280;5668;52.012;8.724;2023-04-01T03:38:46;98033.81;;;11.44;100.00
11223;BME280;5668;52.012;8.724;2023-04-01T03:41:14;98032.03;;;11.45;100.00
11223;BME280;5668;52.012;8.724;2023-04-01T03:43:41;98025.69;;;11.47;100.00
11223;BME280;5668;52.012;8.724;2023-04-01T03:46:09;98033.50;;;11.47;100.00
11223;BME280;5668;52.012;8.724;2023-04-01T03:48:37;98025.69;;;11.47;100.00
11223;BME280;5668;52.012;8.724;2023-04-01T03:51:07;98038.06;;;11.45;100.00
11223;BME280;5668;52.012;8.724;2023-04-01T03:53:34;98029.44;;;11.45;100.00
11223;BME280;5668;52.012;8.724;2023-04-01T03:56:04;98030.41;;;11.44;100.00
11223;BME280;5668;52.012;8.724;2023-04-01T03:58:31;98033.66;;;11.46;100.00
11223;BME280;5668;52.012;8.724;2023-04-01T04:00:59;98022.31;;;11.39;100.00
11223;BME280;5668;52.012;8.724;2023-04-01T04:03:26;98035.59;;;11.44;100.00
11223;BME280;5668;52.012;8.724;2023-04-01T04:05:56;98037.59;;;11.42;100.00
11223;BME280;5668;52.012;8.724;2023-04-01T04:08:23;98042.78;;;11.42;100.00
11223;BME280;5668;52.012;8.724;2023-04-01T04:10:55;98038.56;;;11.41;100.00
11223;BME280;5668;52.012;8.724;2023-04-01T04:13:22;98045.72;;;11.39;100.00
11223;BME280;5668;52.012;8.724;2023-04-01T04:15:49;98034.34;;;11.40;100.00
11223;BME280;5668;52.012;8.724;2023-04-01T04:18:17;98038.72;;;11.39;100.00
11223;BME280;5668;52.012;8.724;2023-04-01T04:20:44;98039.53;;;11.40;100.00
11223;BME280;5668;52.012;8.724;2023-04-01T04:23:15;98038.72;;;11.39;100.00
11223;BME280;5668;52.012;8.724;2023-04-01T04:25:54;98036.44;;;11.36;100.00
11223;BME280;5668;52.012;8.724;2023-04-01T04:28:21;98036.66;;;11.35;100.00
11223;BME280;5668;52.012;8.724;2023-04-01T04:30:48;98039.53;;;11.40;100.00
11223;BME280;5668;52.012;8.724;2023-04-01T04:33:16;98040.69;;;11.37;100.00
11223;BME280;5668;52.012;8.724;2023-04-01T04:35:43;98036.44;;;11.36;100.00
11223;BME280;5668;52.012;8.724;2023-04-01T04:38:10;98039.88;;;11.37;100.00
11223;BME280;5668;52.012;8.724;2023-04-01T04:40:40;98036.66;;;11.35;100.00
11223;BME280;5668;52.012;8.724;2023-04-01T04:43:09;98042.63;;;11.35;100.00
11223;BME280;5668;52.012;8.724;2023-04-01T04:45:37;98041.84;;;11.35;100.00
11223;BME280;5668;52.012;8.724;2023-04-01T04:48:04;98036.81;;;11.33;100.00
11223;BME280;5668;52.012;8.724;2023-04-01T04:50:32;98038.28;;;11.28;100.00
11223;BME280;5668;52.012;8.724;2023-04-01T04:52:59;98048.84;;;11.26;100.00
11223;BME280;5668;52.012;8.724;2023-04-01T04:55:26;98045.28;;;11.27;100.00
11223;BME280;5668;52.012;8.724;2023-04-01T04:57:55;98052.06;;;11.28;100.00
11223;BME280;5668;52.012;8.724;2023-04-01T05:00:22;98050.00;;;11.23;100.00
11223;BME280;5668;52.012;8.724;2023-04-01T05:02:49;98046.09;;;11.28;100.00
11223;BME280;5668;52.012;8.724;2023-04-01T05:05:17;98058.09;;;11.29;100.00
11223;BME280;5668;52.012;8.724;2023-04-01T05:07:44;98052.91;;;11.29;100.00
11223;BME280;5668;52.012;8.724;2023-04-01T05:10:12;98060.53;;;11.30;100.00
11223;BME280;5668;52.012;8.724;2023-04-01T05:12:39;98056.50;;;11.28;100.00
11223;BME280;5668;52.012;8.724;2023-04-01T05:15:09;98064.91;;;11.30;100.00
11223;BME280;5668;52.012;8.724;2023-04-01T05:17:36;98063.47;;;11.27;100.00
11223;BME280;5668;52.012;8.724;2023-04-01T05:20:05;98061.69;;;11.28;100.00
11223;BME280;5668;52.012;8.724;2023-04-01T05:22:33;98063.66;;;11.25;100.00
11223;BME280;5668;52.012;8.724;2023-04-01T05:25:00;98062.00;;;11.24;100.00
11223;BME280;5668;52.012;8.724;2023-04-01T05:27:27;98063.00;;;11.23;100.00
11223;BME280;5668;52.012;8.724;2023-04-01T05:29:54;98063.97;;;11.22;100.00
11223;BME280;5668;52.012;8.724;2023-04-01T05:32:23;98074.19;;;11.24;100.00
11223;BME280;5668;52.012;8.724;2023-04-01T05:34:51;98072.75;;;11.21;100.00
11223;BME280;5668;52.012;8.724;2023-04-01T05:37:18;98070.13;;;11.21;100.00
11223;BME280;5668;52.012;8.724;2023-04-01T05:39:46;98068.50;;;11.20;100.00
11223;BME280;5668;52.012;8.724;2023-04-01T05:42:13;98073.72;;;11.20;100.00
11223;BME280;5668;52.012;8.724;2023-04-01T05:44:41;98069.97;;;11.23;100.00
11223;BME280;5668;52.012;8.724;2023-04-01T05:47:08;98077.78;;;11.23;100.00
11223;BME280;5668;52.012;8.724;2023-04-01T05:49:37;98076.81;;;11.24;100.00
11223;BME280;5668;52.012;8.724;2023-04-01T05:52:04;98079.25;;;11.25;100.00
11223;BME280;5668;52.012;8.724;2023-04-01T05:54:32;98073.72;;;11.20;100.00
11223;BME280;5668;52.012;8.724;2023-04-01T05:56:59;98084.94;;;11.21;100.00
11223;BME280;5668;52.012;8.724;2023-04-01T05:59:27;98079.25;;;11.17;100.00
11223;BME280;5668;52.012;8.724;2023-04-01T06:01:54;98085.44;;;11.16;100.00
11223;BME280;5668;52.012;8.724;2023-04-01T06:04:22;98082.69;;;11.18;100.00
11223;BME280;5668;52.012;8.724;2023-04-01T06:06:50;98087.38;;;11.14;100.00
11223;BME280;5668;52.012;8.724;2023-04-01T06:09:21;98082.53;;;11.11;100.00
11223;BME280;5668;52.012;8.724;2023-04-01T06:12:18;98090.13;;;11.13;100.00
11223;BME280;5668;52.012;8.724;2023-04-01T06:14:52;98087.72;;;11.11;100.00
11223;BME280;5668;52.012;8.724;2023-04-01T06:17:41;98089.00;;;11.15;100.00
11223;BME280;5668;52.012;8.724;2023-04-01T06:20:19;98093.38;;;11.15;100.00
11223;BME280;5668;52.012;8.724;2023-04-01T06:25:49;98100.53;;;11.21;100.00
11223;BME280;5668;52.012;8.724;2023-04-01T06:28:46;98098.94;;;11.20;100.00
11223;BME280;5668;52.012;8.724;2023-04-01T06:31:25;98104.13;;;11.20;100.00
11223;BME280;5668;52.012;8.724;2023-04-01T06:34:08;98100.06;;;11.17;100.00
11223;BME280;5668;52.012;8.724;2023-04-01T06:37:05;98109.13;;;11.21;100.00
11223;BME280;5668;52.012;8.724;2023-04-01T06:39:48;98110.75;;;11.22;100.00
11223;BME280;5668;52.012;8.724;2023-04-01T06:42:36;98108.81;;;11.24;100.00
11223;BME280;5668;52.012;8.724;2023-04-01T06:45:13;98108.81;;;11.24;100.00
11223;BME280;5668;52.012;8.724;2023-04-01T06:47:54;98111.88;;;11.28;100.00
11223;BME280;5668;52.012;8.724;2023-04-01T06:50:28;98111.72;;;11.30;100.00
11223;BME280;5668;52.012;8.724;2023-04-01T06:53:02;98113.69;;;11.28;100.00
11223;BME280;5668;52.012;8.724;2023-04-01T06:55:38;98114.81;;;11.33;100.00
11223;BME280;5668;52.012;8.724;2023-04-01T06:58:13;98118.69;;;11.37;100.00
11223;BME280;5668;52.012;8.724;2023-04-01T07:00:48;98121.94;;;11.39;100.00
11223;BME280;5668;52.012;8.724;2023-04-01T07:03:20;98118.38;;;11.40;100.00
11223;BME280;5668;52.012;8.724;2023-04-01T07:05:49;98122.41;;;11.43;100.00
11223;BME280;5668;52.012;8.724;2023-04-01T07:08:20;98122.09;;;11.46;100.00
11223;BME280;5668;52.012;8.724;2023-04-01T07:10:52;98126.16;;;11.48;100.00
11223;BME280;5668;52.012;8.724;2023-04-01T07:13:26;98130.84;;;11.53;100.00
11223;BME280;5668;52.012;8.724;2023-04-01T07:16:03;98135.06;;;11.54;100.00
11223;BME280;5668;52.012;8.724;2023-04-01T07:18:37;98133.44;;;11.53;100.00
11223;BME280;5668;52.012;8.724;2023-04-01T07:21:14;98131.97;;;11.50;100.00
11223;BME280;5668;52.012;8.724;2023-04-01T07:23:46;98130.06;;;11.44;100.00
11223;BME280;5668;52.012;8.724;2023-04-01T07:26:19;98141.75;;;11.48;100.00
11223;BME280;5668;52.012;8.724;2023-04-01T07:28:48;98142.56;;;11.49;100.00
11223;BME280;5668;52.012;8.724;2023-04-01T07:31:23;98144.50;;;11.55;100.00
11223;BME280;5668;52.012;8.724;2023-04-01T07:34:01;98144.34;;;11.56;100.00
11223;BME280;5668;52.012;8.724;2023-04-01T07:36:35;98142.72;;;11.55;100.00
11223;BME280;5668;52.012;8.724;2023-04-01T07:39:15;98153.59;;;11.59;100.00
11223;BME280;5668;52.012;8.724;2023-04-01T07:41:52;98151.63;;;11.61;100.00
11223;BME280;5668;52.012;8.724;2023-04-01T07:44:28;98149.03;;;11.61;100.00
11223;BME280;5668;52.012;8.724;2023-04-01T07:50:11;98162.38;;;11.58;100.00
11223;BME280;5668;52.012;8.724;2023-04-01T07:52:47;98159.59;;;11.59;100.00
11223;BME280;5668;52.012;8.724;2023-04-01T07:55:21;98159.59;;;11.59;100.00
11223;BME280;5668;52.012;8.724;2023-04-01T07:57:58;98168.38;;;11.58;100.00
11223;BME280;5668;52.012;8.724;2023-04-01T08:00:35;98169.19;;;11.59;100.00
11223;BME280;5668;52.012;8.724;2023-04-01T08:03:18;98168.72;;;11.63;100.00
11223;BME280;5668;52.012;8.724;2023-04-01T08:05:55;98173.09;;;11.63;100.00
11223;BME280;5668;52.012;8.724;2023-04-01T08:08:32;98172.13;;;11.64;100.00
11223;BME280;5668;52.012;8.724;2023-04-01T08:11:11;98182.53;;;11.64;100.00
11223;BME280;5668;52.012;8.724;2023-04-01T08:13:45;98186.25;;;11.70;100.00
11223;BME280;5668;52.012;8.724;2023-04-01T08:16:20;98183.34;;;11.73;100.00
11223;BME280;5668;52.012;8.724;2023-04-01T08:18:58;98191.91;;;11.73;100.00
11223;BME280;5668;52.012;8.724;2023-04-01T08:21:30;98188.22;;;11.76;100.00
11223;BME280;5668;52.012;8.724;2023-04-01T08:24:06;98192.91;;;11.80;100.00
11223;BME280;5668;52.012;8.724;2023-04-01T08:26:40;98196.31;;;11.81;100.00
11223;BME280;5668;52.012;8.724;2023-04-01T08:29:15;98199.75;;;11.81;100.00
11223;BME280;5668;52.012;8.724;2023-04-01T08:31:49;98198.09;;;11.80;100.00
11223;BME280;5668;52.012;8.724;2023-04-01T08:34:22;98208.84;;;11.85;100.00
11223;BME280;5668;52.012;8.724;2023-04-01T08:36:53;98202.31;;;11.89;100.00
11223;BME280;5668;52.012;8.724;2023-04-01T08:39:28;98205.56;;;11.91;100.00
11223;BME280;5668;52.012;8.724;2023-04-01T08:42:09;98207.84;;;11.94;100.00
11223;BME280;5668;52.012;8.724;2023-04-01T08:45:02;98203.91;;;11.98;100.00
11223;BME280;5668;52.012;8.724;2023-04-01T08:47:54;98206.19;;;12.01;100.00
11223;BME280;5668;52.012;8.724;2023-04-01T08:50:55;98205.22;;;12.02;100.00
11223;BME280;5668;52.012;8.724;2023-04-01T08:53:39;98215.44;;;12.04;100.00
11223;BME280;5668;52.012;8.724;2023-04-01T08:56:17;98217.06;;;12.05;100.00
11223;BME280;5668;52.012;8.724;2023-04-01T08:58:57;98222.44;;;12.03;100.00
11223;BME280;5668;52.012;8.724;2023-04-01T09:01:46;98214.81;;;12.10;100.00
11223;BME280;5668;52.012;8.724;2023-04-01T09:04:41;98218.50;;;12.16;100.00
11223;BME280;5668;52.012;8.724;2023-04-01T09:07:29;98222.09;;;12.15;100.00
11223;BME280;5668;52.012;8.724;2023-04-01T09:16:21;98226.28;;;12.24;100.00
11223;BME280;5668;52.012;8.724;2023-04-01T09:19:21;98225.94;;;12.27;100.00
11223;BME280;5668;52.012;8.724;2023-04-01T09:22:21;98230.81;;;12.30;100.00
11223;BME280;5668;52.012;8.724;2023-04-01T09:25:04;98232.09;;;12.34;100.00
11223;BME280;5668;52.012;8.724;2023-04-01T09:27:37;98235.34;;;12.36;100.00
11223;BME280;5668;52.012;8.724;2023-04-01T09:36:18;98239.88;;;12.42;100.00
11223;BME280;5668;52.012;8.724;2023-04-01T09:38:56;98245.41;;;12.47;100.00
11223;BME280;5668;52.012;8.724;2023-04-01T09:41:29;98250.94;;;12.44;100.00
11223;BME280;5668;52.012;8.724;2023-04-01T09:44:03;98252.75;;;12.44;100.00
11223;BME280;5668;52.012;8.724;2023-04-01T09:46:50;98256.81;;;12.46;100.00
11223;BME280;5668;52.012;8.724;2023-04-01T09:49:47;98260.69;;;12.50;100.00
11223;BME280;5668;52.012;8.724;2023-04-01T09:52:27;98259.69;;;12.51;100.00
11223;BME280;5668;52.012;8.724;2023-04-01T09:55:25;98260.34;;;12.53;100.00
11223;BME280;5668;52.012;8.724;2023-04-01T10:01:26;98269.13;;;12.60;100.00
11223;BME280;5668;52.012;8.724;2023-04-01T10:04:26;98265.69;;;12.60;100.00
11223;BME280;5668;52.012;8.724;2023-04-01T10:13:38;98266.63;;;12.67;100.00
11223;BME280;5668;52.012;8.724;2023-04-01T10:19:43;98278.53;;;12.69;100.00
11223;BME280;5668;52.012;8.724;2023-04-01T10:22:50;98282.75;;;12.70;100.00
11223;BME280;5668;52.012;8.724;2023-04-01T10:25:55;98281.75;;;12.71;100.00
11223;BME280;5668;52.012;8.724;2023-04-01T10:28:53;98283.22;;;12.74;100.00
11223;BME280;5668;52.012;8.724;2023-04-01T10:32:01;98288.59;;;12.72;100.00
11223;BME280;5668;52.012;8.724;2023-04-01T10:34:56;98285.34;;;12.70;100.00
11223;BME280;5668;52.012;8.724;2023-04-01T10:37:43;98285.34;;;12.70;100.00
11223;BME280;5668;52.012;8.724;2023-04-01T10:40:45;98291.34;;;12.71;100.00
11223;BME280;5668;52.012;8.724;2023-04-01T10:43:46;98283.03;;;12.75;100.00
11223;BME280;5668;52.012;8.724;2023-04-01T10:49:43;98282.97;;;12.92;100.00
11223;BME280;5668;52.012;8.724;2023-04-01T11:02:45;98287.41;;;13.14;100.00
11223;BME280;5668;52.012;8.724;2023-04-01T11:05:45;98288.69;;;13.18;100.00
11223;BME280;5668;52.012;8.724;2023-04-01T11:09:01;98286.72;;;13.20;100.00
11223;BME280;5668;52.012;8.724;2023-04-01T11:18:15;98305.25;;;13.25;100.00
11223;BME280;5668;52.012;8.724;2023-04-01T11:24:11;98307.22;;;13.23;100.00
11223;BME280;5668;52.012;8.724;2023-04-01T11:26:52;98309.03;;;13.23;100.00
11223;BME280;5668;52.012;8.724;2023-04-01T11:29:41;98317.66;;;13.23;100.00
11223;BME280;5668;52.012;8.724;2023-04-01T11:32:25;98320.75;;;13.27;100.00
11223;BME280;5668;52.012;8.724;2023-04-01T11:35:12;98316.97;;;13.29;100.00
11223;BME280;5668;52.012;8.724;2023-04-01T11:37:53;98316.66;;;13.24;100.00
11223;BME280;5668;52.012;8.724;2023-04-01T11:40:29;98316.16;;;13.29;100.00
11223;BME280;5668;52.012;8.724;2023-04-01T11:43:06;98322.31;;;13.36;100.00
11223;BME280;5668;52.012;8.724;2023-04-01T11:45:39;98322.97;;;13.38;100.00
11223;BME280;5668;52.012;8.724;2023-04-01T11:48:32;98331.56;;;13.38;100.00
11223;BME280;5668;52.012;8.724;2023-04-01T11:51:18;98330.94;;;13.36;100.00
11223;BME280;5668;52.012;8.724;2023-04-01T11:53:56;98338.13;;;13.34;100.00
11223;BME280;5668;52.012;8.724;2023-04-01T11:56:54;98348.91;;;13.31;100.00
11223;BME280;5668;52.012;8.724;2023-04-01T11:59:45;98339.28;;;13.32;100.00
11223;BME280;5668;52.012;8.724;2023-04-01T12:02:19;98349.91;;;13.30;100.00
11223;BME280;5668;52.012;8.724;2023-04-01T12:08:02;98351.88;;;13.28;100.00
11223;BME280;5668;52.012;8.724;2023-04-01T12:10:38;98347.63;;;13.27;100.00
11223;BME280;5668;52.012;8.724;2023-04-01T12:13:16;98358.06;;;13.27;100.00
11223;BME280;5668;52.012;8.724;2023-04-01T12:16:13;98364.91;;;13.28;100.00
11223;BME280;5668;52.012;8.724;2023-04-01T12:18:51;98369.16;;;13.29;100.00
11223;BME280;5668;52.012;8.724;2023-04-01T12:21:26;98363.94;;;13.29;100.00
11223;BME280;5668;52.012;8.724;2023-04-01T12:24:09;98360.16;;;13.32;100.00
11223;BME280;5668;52.012;8.724;2023-04-01T12:26:52;98367.47;;;13.36;100.00
11223;BME280;5668;52.012;8.724;2023-04-01T12:29:45;98361.72;;;13.41;100.00
11223;BME280;5668;52.012;8.724;2023-04-01T12:32:22;98371.03;;;13.43;100.00
11223;BME280;5668;52.012;8.724;2023-04-01T12:35:17;98369.41;;;13.42;100.00
11223;BME280;5668;52.012;8.724;2023-04-01T12:37:52;98375.88;;;13.46;100.00
11223;BME280;5668;52.012;8.724;2023-04-01T12:40:41;98377.16;;;13.50;100.00
11223;BME280;5668;52.012;8.724;2023-04-01T12:46:15;98383.31;;;13.57;100.00
11223;BME280;5668;52.012;8.724;2023-04-01T12:49:05;98384.25;;;13.65;100.00
11223;BME280;5668;52.012;8.724;2023-04-01T12:51:58;98386.69;;;13.66;100.00
11223;BME280;5668;52.012;8.724;2023-04-01T12:54:53;98387.19;;;13.62;100.00
11223;BME280;5668;52.012;8.724;2023-04-01T12:57:46;98391.78;;;13.60;100.00
11223;BME280;5668;52.012;8.724;2023-04-01T13:00:31;98391.44;;;13.63;100.00
11223;BME280;5668;52.012;8.724;2023-04-01T13:03:19;98399.22;;;13.71;100.00
11223;BME280;5668;52.012;8.724;2023-04-01T13:06:20;98404.44;;;13.71;100.00
11223;BME280;5668;52.012;8.724;2023-04-01T13:08:54;98397.56;;;13.70;100.00
11223;BME280;5668;52.012;8.724;2023-04-01T13:11:35;98405.41;;;13.70;100.00
11223;BME280;5668;52.012;8.724;2023-04-01T13:14:44;98402.81;;;13.70;100.00
11223;BME280;5668;52.012;8.724;2023-04-01T13:17:18;98409.66;;;13.71;100.00
11223;BME280;5668;52.012;8.724;2023-04-01T13:19:51;98416.50;;;13.72;100.00
11223;BME280;5668;52.012;8.724;2023-04-01T13:22:26;98420.09;;;13.71;100.00
11223;BME280;5668;52.012;8.724;2023-04-01T13:25:01;98414.06;;;13.70;100.00
11223;BME280;5668;52.012;8.724;2023-04-01T13:27:36;98423.34;;;13.73;100.00
11223;BME280;5668;52.012;8.724;2023-04-01T13:30:21;98423.34;;;13.73;100.00
11223;BME280;5668;52.012;8.724;2023-04-01T13:32:55;98433.31;;;13.69;100.00
11223;BME280;5668;52.012;8.724;2023-04-01T13:35:40;98429.56;;;13.72;100.00
11223;BME280;5668;52.012;8.724;2023-04-01T13:38:37;98431.47;;;13.78;100.00
11223;BME280;5668;52.012;8.724;2023-04-01T13:41:14;98430.81;;;13.76;100.00
11223;BME280;5668;52.012;8.724;2023-04-01T13:43:49;98437.34;;;13.80;100.00
11223;BME280;5668;52.012;8.724;2023-04-01T13:46:34;98438.59;;;13.84;100.00
11223;BME280;5668;52.012;8.724;2023-04-01T13:49:28;98439.78;;;13.81;100.00
11223;BME280;5668;52.012;8.724;2023-04-01T13:52:20;98446.78;;;13.81;100.00
11223;BME280;5668;52.012;8.724;2023-04-01T13:55:26;98446.16;;;13.79;100.00
11223;BME280;5668;52.012;8.724;2023-04-01T14:01:04;98454.63;;;13.81;100.00
11223;BME280;5668;52.012;8.724;2023-04-01T14:03:43;98456.88;;;13.84;100.00
11223;BME280;5668;52.012;8.724;2023-04-01T14:06:29;98459.78;;;13.89;100.00
11223;BME280;5668;52.012;8.724;2023-04-01T14:09:38;98457.41;;;13.79;100.00
11223;BME280;5668;52.012;8.724;2023-04-01T14:12:23;98463.09;;;13.83;100.00
11223;BME280;5668;52.012;8.724;2023-04-01T14:15:07;98468.63;;;13.88;100.00
11223;BME280;5668;52.012;8.724;2023-04-01T14:17:54;98472.69;;;13.90;100.00
11223;BME280;5668;52.012;8.724;2023-04-01T14:20:36;98475.09;;;13.92;100.00
11223;BME280;5668;52.012;8.724;2023-04-01T14:23:28;98480.16;;;13.93;100.00
11223;BME280;5668;52.012;8.724;2023-04-01T14:26:20;98486.84;;;13.96;100.00
11223;BME280;5668;52.012;8.724;2023-04-01T14:28:56;98493.03;;;13.95;100.00
11223;BME280;5668;52.012;8.724;2023-04-01T14:31:51;98492.13;;;13.88;100.00
11223;BME280;5668;52.012;8.724;2023-04-01T14:34:38;98493.09;;;13.87;100.00
11223;BME280;5668;52.012;8.724;2023-04-01T14:37:29;98494.72;;;13.88;100.00
11223;BME280;5668;52.012;8.724;2023-04-01T14:40:26;98496.81;;;13.92;100.00
11223;BME280;5668;52.012;8.724;2023-04-01T14:43:08;98497.63;;;13.93;100.00
11223;BME280;5668;52.012;8.724;2023-04-01T14:45:55;98505.28;;;13.94;100.00
11223;BME280;5668;52.012;8.724;2023-04-01T14:48:30;98505.41;;;14.01;100.00
11223;BME280;5668;52.012;8.724;2023-04-01T14:51:08;98519.81;;;13.97;100.00
11223;BME280;5668;52.012;8.724;2023-04-01T14:53:40;98512.97;;;13.96;100.00